Aviation Digital Data Service (ADDS)

Output produced by TAFs form (1932 UTC 17 September 2014)
found at http://aviationweather.gov/adds/tafs/
 
KDRO 171733Z 1718/1818 VRB03KT P6SM SCT110 BKN200 
     FM172000 22008KT P6SM VCTS FEW110CB BKN200 
     FM180200 05004KT P6SM FEW110 BKN150 
     FM180800 01005KT P6SM SCT200 
     FM181200 VRB03KT P6SM SKC